This is the latest recevied weather packets stored in our database for station/object CE3MXM-12. If no packets are shown the sender has not sent any weather packets the latest 10 day(s).
| Time | Temp. | Humidity | Pressure | Rain* | Wind** | Luminosity | Snow |
|---|---|---|---|---|---|---|---|
| 1777967096 | 14.44° C | 72% | 1012.9 hPa | - | - | - | - |
| 1777966795 | 14.44° C | 72% | 1013.3 hPa | - | - | - | - |
| 1777966495 | 14.44° C | 72% | 1013.2 hPa | - | - | - | - |
| 1777966195 | 14.44° C | 72% | 1013.4 hPa | - | - | - | - |
| 1777965895 | 14.44° C | 71% | 1013.3 hPa | - | - | - | - |
| 1777965595 | 14.44° C | 71% | 1013.4 hPa | - | - | - | - |
| 1777965295 | 14.44° C | 71% | 1013.1 hPa | - | - | - | - |
| 1777964995 | 14.44° C | 71% | 1013.2 hPa | - | - | - | - |
| 1777964695 | 14.44° C | 71% | 1013.5 hPa | - | - | - | - |
| 1777964395 | 14.44° C | 71% | 1013.5 hPa | - | - | - | - |
| 1777964094 | 14.44° C | 71% | 1013.5 hPa | - | - | - | - |
| 1777963794 | 14.44° C | 70% | 1013.8 hPa | - | - | - | - |
| 1777963494 | 14.44° C | 68% | 1013.7 hPa | - | - | - | - |
| 1777963194 | 14.44° C | 68% | 1013.8 hPa | - | - | - | - |
| 1777962894 | 13.89° C | 71% | 1014 hPa | - | - | - | - |
| 1777962594 | 13.89° C | 73% | 1014.1 hPa | - | - | - | - |
| 1777962294 | 13.33° C | 72% | 1014 hPa | - | - | - | - |
| 1777961994 | 13.89° C | 72% | 1014 hPa | - | - | - | - |
| 1777961694 | 13.89° C | 72% | 1014.1 hPa | - | - | - | - |
| 1777961393 | 13.89° C | 70% | 1014.1 hPa | - | - | - | - |
| 1777961094 | 13.89° C | 69% | 1013.9 hPa | - | - | - | - |
| 1777960793 | 13.89° C | 71% | 1013.9 hPa | - | - | - | - |
| 1777960493 | 13.33° C | 75% | 1013.9 hPa | - | - | - | - |
| 1777960193 | 13.33° C | 75% | 1013.9 hPa | - | - | - | - |
| 1777959893 | 20° C | 60% | 1013.2 hPa | - | - | - | - |
* Rain since midnight (hover to see other rain measurements)
** Current wind speed in m/s (hover to see current wind gust speed)